createdAt,value
2017-11-03T00:18:24.001Z,1010.45
2017-11-03T00:19:23.979Z,1010.37
2017-11-03T00:20:23.956Z,1010.35
2017-11-03T00:21:23.930Z,1010.4
2017-11-03T00:22:23.906Z,1010.43
2017-11-03T00:23:23.883Z,1010.38
2017-11-03T00:24:23.856Z,1010.41
2017-11-03T00:25:23.832Z,1010.38
2017-11-03T00:26:23.812Z,1010.39
2017-11-03T00:27:23.788Z,1010.39
2017-11-03T00:28:23.765Z,1010.41
2017-11-03T00:29:23.735Z,1010.34
2017-11-03T00:30:23.710Z,1010.36
2017-11-03T00:31:23.689Z,1010.39
2017-11-03T00:32:23.664Z,1010.42
2017-11-03T00:33:23.644Z,1010.37
2017-11-03T00:34:23.615Z,1010.37
2017-11-03T00:35:23.591Z,1010.41
2017-11-03T00:36:23.566Z,1010.4
2017-11-03T00:37:23.544Z,1010.36
2017-11-03T00:38:23.518Z,1010.39
2017-11-03T00:39:23.494Z,1010.38
2017-11-03T00:40:23.471Z,1010.37
2017-11-03T00:41:23.445Z,1010.45
2017-11-03T00:42:23.423Z,1010.41
2017-11-03T00:43:23.398Z,1010.37
2017-11-03T00:44:23.374Z,1010.37
2017-11-03T00:45:23.353Z,1010.32
2017-11-03T00:46:23.330Z,1010.34
2017-11-03T00:47:23.301Z,1010.34
2017-11-03T00:48:23.278Z,1010.37
2017-11-03T00:49:23.253Z,1010.4
2017-11-03T00:50:23.228Z,1010.39
2017-11-03T00:51:23.209Z,1010.39
2017-11-03T00:52:23.180Z,1010.41
2017-11-03T00:53:23.156Z,1010.43
2017-11-03T00:54:23.133Z,1010.44
2017-11-03T00:55:23.109Z,1010.45
2017-11-03T00:56:23.085Z,1010.43
2017-11-03T00:57:23.059Z,1010.42
2017-11-03T00:58:23.035Z,1010.44
2017-11-03T00:59:23.013Z,1010.45
2017-11-03T01:00:22.988Z,1010.44
2017-11-03T01:01:22.964Z,1010.46
2017-11-03T01:02:22.938Z,1010.47
2017-11-03T01:03:22.916Z,1010.47
2017-11-03T01:04:22.890Z,1010.45
2017-11-03T01:05:22.874Z,1010.46
2017-11-03T01:06:22.842Z,1010.45
2017-11-03T01:07:22.825Z,1010.43
2017-11-03T01:08:22.793Z,1010.48
2017-11-03T01:09:22.774Z,1010.45
2017-11-03T01:10:22.745Z,1010.42
2017-11-03T01:11:22.721Z,1010.47
2017-11-03T01:12:22.698Z,1010.5
2017-11-03T01:13:22.673Z,1010.47
2017-11-03T01:14:22.648Z,1010.46
2017-11-03T01:15:22.627Z,1010.47
2017-11-03T01:16:22.602Z,1010.49
2017-11-03T01:17:22.577Z,1010.47
2017-11-03T01:18:22.553Z,1010.4
2017-11-03T01:19:22.528Z,1010.45
2017-11-03T01:20:22.506Z,1010.44
2017-11-03T01:21:22.479Z,1010.39
2017-11-03T01:22:22.456Z,1010.47
2017-11-03T01:23:22.431Z,1010.4
2017-11-03T01:24:22.415Z,1010.39
2017-11-03T01:25:22.382Z,1010.39
2017-11-03T01:26:22.362Z,1010.36
2017-11-03T01:27:22.337Z,1010.37
2017-11-03T01:28:22.313Z,1010.36
2017-11-03T01:29:22.288Z,1010.41
2017-11-03T01:30:22.267Z,1010.37
2017-11-03T01:31:22.238Z,1010.38
2017-11-03T01:32:22.215Z,1010.43
2017-11-03T01:33:22.197Z,1010.43
2017-11-03T01:34:22.168Z,1010.45
2017-11-03T01:35:22.143Z,1010.44
2017-11-03T01:36:22.117Z,1010.4
2017-11-03T01:37:22.112Z,1010.44
2017-11-03T01:38:22.069Z,1010.45
2017-11-03T01:39:22.045Z,1010.48
2017-11-03T01:40:22.023Z,1010.46
2017-11-03T01:41:21.997Z,1010.42
2017-11-03T01:42:21.974Z,1010.46
2017-11-03T01:43:21.949Z,1010.49
2017-11-03T01:44:21.925Z,1010.41
2017-11-03T01:45:21.908Z,1010.4
2017-11-03T01:46:21.877Z,1010.4
2017-11-03T01:47:21.854Z,1010.39
2017-11-03T01:48:21.832Z,1010.4
2017-11-03T01:49:21.805Z,1010.41
2017-11-03T01:50:21.782Z,1010.39
2017-11-03T01:51:21.759Z,1010.42
2017-11-03T01:52:21.734Z,1010.42
2017-11-03T01:53:21.715Z,1010.41
2017-11-03T01:54:21.689Z,1010.42
2017-11-03T01:56:21.637Z,1010.41
2017-11-03T01:57:21.614Z,1010.42
2017-11-03T01:58:21.588Z,1010.43
2017-11-03T01:59:21.565Z,1010.44
2017-11-03T02:00:21.538Z,1010.39
2017-11-03T02:01:21.519Z,1010.41
2017-11-03T02:02:21.492Z,1010.39
2017-11-03T02:03:21.468Z,1010.45
2017-11-03T02:04:21.443Z,1010.4
2017-11-03T02:05:21.420Z,1010.4
2017-11-03T02:06:21.398Z,1010.35
2017-11-03T02:07:21.371Z,1010.37
2017-11-03T02:08:21.347Z,1010.33
2017-11-03T02:09:21.323Z,1010.35
2017-11-03T02:10:21.299Z,1010.39
2017-11-03T02:11:21.275Z,1010.4
2017-11-03T02:12:21.250Z,1010.38
2017-11-03T02:13:21.226Z,1010.42
2017-11-03T02:14:21.201Z,1010.4
2017-11-03T02:15:21.178Z,1010.4
2017-11-03T02:16:21.152Z,1010.43
2017-11-03T02:17:21.129Z,1010.4
2017-11-03T02:18:21.105Z,1010.38
2017-11-03T02:19:21.081Z,1010.37
2017-11-03T02:20:21.055Z,1010.37
2017-11-03T02:21:21.034Z,1010.4
2017-11-03T02:22:21.007Z,1010.38
2017-11-03T02:23:20.984Z,1010.41
2017-11-03T02:24:20.959Z,1010.44
2017-11-03T02:25:20.936Z,1010.43
2017-11-03T02:26:20.911Z,1010.44
2017-11-03T02:27:20.886Z,1010.45
2017-11-03T02:28:20.862Z,1010.46
2017-11-03T02:29:20.841Z,1010.43
2017-11-03T02:30:20.814Z,1010.4
2017-11-03T02:31:20.790Z,1010.42
2017-11-03T02:32:20.765Z,1010.43
2017-11-03T02:33:20.739Z,1010.45
2017-11-03T02:34:20.715Z,1010.43
2017-11-03T02:35:20.696Z,1010.43
2017-11-03T02:36:20.668Z,1010.44
2017-11-03T02:37:20.643Z,1010.44
2017-11-03T02:38:20.620Z,1010.44
2017-11-03T02:39:20.598Z,1010.45
2017-11-03T02:40:20.571Z,1010.46
2017-11-03T02:41:20.549Z,1010.45
2017-11-03T02:42:20.525Z,1010.5
2017-11-03T02:43:20.500Z,1010.47
2017-11-03T02:44:20.474Z,1010.51
2017-11-03T02:45:20.450Z,1010.52
2017-11-03T02:46:20.426Z,1010.52
2017-11-03T02:47:20.403Z,1010.58
2017-11-03T02:48:20.377Z,1010.49
2017-11-03T02:49:20.354Z,1010.5
2017-11-03T02:50:20.329Z,1010.51
2017-11-03T02:51:20.306Z,1010.48
2017-11-03T02:52:20.281Z,1010.52
2017-11-03T02:53:20.255Z,1010.53
2017-11-03T02:54:20.232Z,1010.53
2017-11-03T02:55:20.207Z,1010.5
2017-11-03T02:56:20.176Z,1010.52
2017-11-03T02:57:20.159Z,1010.54
2017-11-03T02:58:20.133Z,1010.53
2017-11-03T02:59:20.109Z,1010.5
2017-11-03T03:00:20.085Z,1010.5
2017-11-03T03:01:20.059Z,1010.52
2017-11-03T03:02:20.035Z,1010.52
2017-11-03T03:03:20.010Z,1010.51
2017-11-03T03:04:19.986Z,1010.5
2017-11-03T03:05:19.960Z,1010.52
2017-11-03T03:06:19.938Z,1010.52
2017-11-03T03:07:19.914Z,1010.52
2017-11-03T03:08:19.890Z,1010.54
2017-11-03T03:09:19.866Z,1010.52
2017-11-03T03:10:19.839Z,1010.52
2017-11-03T03:11:19.815Z,1010.58
2017-11-03T03:12:19.794Z,1010.54
2017-11-03T03:13:19.768Z,1010.54
2017-11-03T03:14:19.744Z,1010.56
2017-11-03T03:15:19.722Z,1010.52
2017-11-03T03:16:19.696Z,1010.53
2017-11-03T03:17:19.672Z,1010.52
2017-11-03T03:18:19.649Z,1010.51
2017-11-03T03:19:19.622Z,1010.52
2017-11-03T03:20:19.599Z,1010.56
2017-11-03T03:21:19.574Z,1010.55
2017-11-03T03:22:19.551Z,1010.56
2017-11-03T03:23:19.525Z,1010.57
2017-11-03T03:24:19.502Z,1010.51
2017-11-03T03:25:19.478Z,1010.52
2017-11-03T03:26:19.454Z,1010.51
2017-11-03T03:27:19.429Z,1010.48
2017-11-03T03:28:19.405Z,1010.5
2017-11-03T03:29:19.381Z,1010.45
2017-11-03T03:30:19.358Z,1010.47
2017-11-03T03:31:19.334Z,1010.44
2017-11-03T03:32:19.308Z,1010.47
2017-11-03T03:33:19.282Z,1010.46
2017-11-03T03:34:19.259Z,1010.5
2017-11-03T03:35:19.237Z,1010.5
2017-11-03T03:36:19.215Z,1010.51
2017-11-03T03:37:19.186Z,1010.54
2017-11-03T03:38:19.164Z,1010.6
2017-11-03T03:39:19.139Z,1010.58
2017-11-03T03:40:19.112Z,1010.59
2017-11-03T03:41:19.094Z,1010.61
2017-11-03T03:42:19.064Z,1010.55
2017-11-03T03:43:19.041Z,1010.55
2017-11-03T03:44:19.015Z,1010.61
2017-11-03T03:45:18.992Z,1010.58
2017-11-03T03:46:18.966Z,1010.59
2017-11-03T03:47:18.941Z,1010.57
2017-11-03T03:48:18.916Z,1010.63
2017-11-03T03:49:18.892Z,1010.63
2017-11-03T03:50:18.870Z,1010.64
2017-11-03T03:51:18.848Z,1010.64
2017-11-03T03:52:18.819Z,1010.62
2017-11-03T03:53:18.796Z,1010.64
2017-11-03T03:54:18.771Z,1010.61
2017-11-03T03:55:18.745Z,1010.57
2017-11-03T03:56:18.722Z,1010.65
2017-11-03T03:57:18.697Z,1010.61
2017-11-03T03:58:18.672Z,1010.62
2017-11-03T03:59:18.649Z,1010.61
2017-11-03T04:00:18.623Z,1010.62
2017-11-03T04:01:18.599Z,1010.59
2017-11-03T04:02:18.575Z,1010.54
2017-11-03T04:03:18.553Z,1010.57
2017-11-03T04:04:18.526Z,1010.55
2017-11-03T04:05:18.502Z,1010.57
2017-11-03T04:06:18.476Z,1010.59
2017-11-03T04:07:18.453Z,1010.57
2017-11-03T04:08:18.428Z,1010.63
2017-11-03T04:09:18.409Z,1010.62
2017-11-03T04:10:18.379Z,1010.62
2017-11-03T04:11:18.364Z,1010.64
2017-11-03T04:12:18.328Z,1010.63
2017-11-03T04:13:18.305Z,1010.65
2017-11-03T04:14:18.282Z,1010.64
2017-11-03T04:15:18.257Z,1010.63
2017-11-03T04:16:18.232Z,1010.67
2017-11-03T04:17:18.206Z,1010.63
2017-11-03T04:18:18.184Z,1010.66
2017-11-03T04:19:18.158Z,1010.62
2017-11-03T04:20:18.134Z,1010.64
2017-11-03T04:21:18.110Z,1010.6
2017-11-03T04:22:18.086Z,1010.61
2017-11-03T04:23:18.061Z,1010.59
2017-11-03T04:24:18.041Z,1010.6
2017-11-03T04:25:18.010Z,1010.59
2017-11-03T04:26:17.986Z,1010.55
2017-11-03T04:27:17.960Z,1010.54
2017-11-03T04:28:17.948Z,1010.51
2017-11-03T04:29:18.262Z,1010.54
2017-11-03T04:30:17.890Z,1010.58
2017-11-03T04:31:17.866Z,1010.54
2017-11-03T04:32:17.838Z,1010.57
2017-11-03T04:33:17.816Z,1010.54
2017-11-03T04:34:17.798Z,1010.57
2017-11-03T04:35:17.766Z,1010.52
2017-11-03T04:36:17.743Z,1010.52
2017-11-03T04:37:17.716Z,1010.54
2017-11-03T04:38:17.692Z,1010.54
2017-11-03T04:39:17.668Z,1010.52
2017-11-03T04:40:17.642Z,1010.53
2017-11-03T04:41:17.621Z,1010.55
2017-11-03T04:42:17.592Z,1010.54
2017-11-03T04:43:17.568Z,1010.59
2017-11-03T04:44:17.544Z,1010.58
2017-11-03T04:45:17.519Z,1010.61
2017-11-03T04:46:17.496Z,1010.65
2017-11-03T04:47:17.470Z,1010.65
2017-11-03T04:48:17.451Z,1010.64
2017-11-03T04:49:17.422Z,1010.59
2017-11-03T04:50:17.403Z,1010.61
2017-11-03T04:51:17.373Z,1010.6
2017-11-03T04:52:17.349Z,1010.63
2017-11-03T04:53:17.323Z,1010.63
2017-11-03T04:54:17.299Z,1010.65
2017-11-03T04:55:17.275Z,1010.63
2017-11-03T04:56:17.249Z,1010.61
2017-11-03T04:57:17.226Z,1010.62
2017-11-03T04:58:17.202Z,1010.64
2017-11-03T04:59:17.177Z,1010.67
2017-11-03T05:00:17.156Z,1010.64
2017-11-03T05:01:17.127Z,1010.68
2017-11-03T05:02:17.104Z,1010.62
2017-11-03T05:03:17.079Z,1010.64
2017-11-03T05:04:17.061Z,1010.63
2017-11-03T05:05:17.030Z,1010.65
2017-11-03T05:06:17.006Z,1010.62
2017-11-03T05:07:16.980Z,1010.6
2017-11-03T05:08:16.956Z,1010.62
2017-11-03T05:09:16.932Z,1010.64
2017-11-03T05:10:16.912Z,1010.66
2017-11-03T05:11:16.882Z,1010.69
2017-11-03T05:12:16.859Z,1010.74
2017-11-03T05:13:16.835Z,1010.7
2017-11-03T05:14:16.810Z,1010.73
2017-11-03T05:15:16.784Z,1010.72
2017-11-03T05:16:16.762Z,1010.64
2017-11-03T05:17:16.741Z,1010.6
2017-11-03T05:18:16.714Z,1010.63
2017-11-03T05:19:16.687Z,1010.67
2017-11-03T05:20:16.661Z,1010.65
2017-11-03T05:21:16.636Z,1010.62
2017-11-03T05:22:16.613Z,1010.67
2017-11-03T05:23:16.588Z,1010.65
2017-11-03T05:24:16.566Z,1010.65
2017-11-03T05:25:16.544Z,1010.68
2017-11-03T05:26:16.518Z,1010.66
2017-11-03T05:27:16.511Z,1010.66
2017-11-03T05:28:16.467Z,1010.66
2017-11-03T05:29:16.441Z,1010.67
2017-11-03T05:30:16.418Z,1010.69
2017-11-03T05:31:16.394Z,1010.68
2017-11-03T05:32:16.375Z,1010.66
2017-11-03T05:33:16.344Z,1010.68
2017-11-03T05:34:16.321Z,1010.68
2017-11-03T05:35:16.296Z,1010.69
2017-11-03T05:36:16.269Z,1010.68
2017-11-03T05:37:16.251Z,1010.64
2017-11-03T05:38:16.224Z,1010.66
2017-11-03T05:39:16.547Z,1010.64
2017-11-03T05:40:16.176Z,1010.66
2017-11-03T05:41:16.149Z,1010.59
2017-11-03T05:42:16.124Z,1010.62
2017-11-03T05:43:16.099Z,1010.64
2017-11-03T05:44:16.074Z,1010.68
2017-11-03T05:45:16.050Z,1010.72
2017-11-03T05:46:16.024Z,1010.7
2017-11-03T05:47:16.008Z,1010.69
2017-11-03T05:48:15.996Z,1010.63
2017-11-03T05:49:15.953Z,1010.63
2017-11-03T05:50:15.930Z,1010.6
2017-11-03T05:51:15.907Z,1010.63
2017-11-03T05:52:15.879Z,1010.63
2017-11-03T05:53:15.855Z,1010.63
2017-11-03T05:54:15.831Z,1010.6
2017-11-03T05:55:15.804Z,1010.61
2017-11-03T05:56:15.783Z,1010.56
2017-11-03T05:57:15.757Z,1010.57
2017-11-03T05:58:15.733Z,1010.56
2017-11-03T05:59:15.709Z,1010.6
2017-11-03T06:00:15.686Z,1010.63
2017-11-03T06:01:15.659Z,1010.6
2017-11-03T06:02:15.634Z,1010.59
2017-11-03T06:03:15.610Z,1010.65
2017-11-03T06:04:15.592Z,1010.68
2017-11-03T06:05:15.561Z,1010.66
2017-11-03T06:06:15.538Z,1010.65
2017-11-03T06:07:15.519Z,1010.64
2017-11-03T06:08:15.489Z,1010.6
2017-11-03T06:09:15.464Z,1010.6
2017-11-03T06:10:15.441Z,1010.63
2017-11-03T06:11:15.415Z,1010.57
2017-11-03T06:12:15.393Z,1010.56
2017-11-03T06:13:15.366Z,1010.63
2017-11-03T06:14:15.342Z,1010.6
2017-11-03T06:15:15.317Z,1010.63
2017-11-03T06:16:15.302Z,1010.62
2017-11-03T06:17:15.267Z,1010.67
2017-11-03T06:18:15.247Z,1010.64
2017-11-03T06:19:15.226Z,1010.62
2017-11-03T06:20:15.195Z,1010.68
2017-11-03T06:21:15.172Z,1010.64
2017-11-03T06:22:15.147Z,1010.65
2017-11-03T06:23:15.119Z,1010.6
2017-11-03T06:24:15.098Z,1010.64
2017-11-03T06:25:15.077Z,1010.6
2017-11-03T06:26:15.052Z,1010.59
2017-11-03T06:27:15.024Z,1010.63
2017-11-03T06:28:15.002Z,1010.59
2017-11-03T06:29:14.982Z,1010.7
2017-11-03T06:30:14.953Z,1010.7
2017-11-03T06:31:14.934Z,1010.68
2017-11-03T06:32:14.902Z,1010.73
2017-11-03T06:33:14.978Z,1010.71
2017-11-03T06:34:14.858Z,1010.73
2017-11-03T06:35:14.831Z,1010.74
2017-11-03T06:36:14.807Z,1010.78
2017-11-03T06:37:14.783Z,1010.76
2017-11-03T06:38:14.757Z,1010.8
2017-11-03T06:39:14.734Z,1010.68
2017-11-03T06:40:14.711Z,1010.67
2017-11-03T06:41:14.686Z,1010.72
2017-11-03T06:42:14.663Z,1010.73
2017-11-03T06:43:14.641Z,1010.77
2017-11-03T06:44:14.613Z,1010.83
2017-11-03T06:45:14.589Z,1010.84
2017-11-03T06:46:14.573Z,1010.81
2017-11-03T06:47:14.544Z,1010.9
2017-11-03T06:48:14.517Z,1010.93
2017-11-03T06:49:14.487Z,1011.01
2017-11-03T06:50:14.467Z,1010.94
2017-11-03T06:51:14.449Z,1010.93
2017-11-03T06:52:14.426Z,1010.89
2017-11-03T06:53:14.394Z,1010.9
2017-11-03T06:54:14.372Z,1010.89
2017-11-03T06:55:14.346Z,1010.88
2017-11-03T06:56:14.323Z,1010.89
2017-11-03T06:57:14.300Z,1010.92
2017-11-03T06:58:14.278Z,1010.92
2017-11-03T06:59:14.248Z,1010.89
2017-11-03T07:00:14.225Z,1010.92
2017-11-03T07:01:14.199Z,1010.96
2017-11-03T07:02:14.175Z,1010.95
2017-11-03T07:03:14.152Z,1011.01
2017-11-03T07:04:14.127Z,1011.02
2017-11-03T07:05:14.104Z,1011
2017-11-03T07:06:14.082Z,1010.96
2017-11-03T07:07:14.057Z,1010.97
2017-11-03T07:08:14.032Z,1010.96
2017-11-03T07:09:14.008Z,1010.93
2017-11-03T07:10:13.982Z,1011
2017-11-03T07:11:13.958Z,1010.97
2017-11-03T07:12:13.934Z,1010.96
2017-11-03T07:13:13.915Z,1010.92
2017-11-03T07:14:13.893Z,1010.95
2017-11-03T07:15:13.860Z,1010.96
2017-11-03T07:16:13.837Z,1010.93
2017-11-03T07:17:13.815Z,1010.98
2017-11-03T07:18:13.788Z,1010.99
2017-11-03T07:19:13.765Z,1011
2017-11-03T07:20:13.740Z,1010.97
2017-11-03T07:21:13.717Z,1011.06
2017-11-03T07:22:13.692Z,1011.05
2017-11-03T07:23:13.671Z,1011.03
2017-11-03T07:24:13.643Z,1011
2017-11-03T07:25:13.620Z,1011.02
2017-11-03T07:26:13.596Z,1010.97
2017-11-03T07:27:13.573Z,1011.04
2017-11-03T07:28:13.551Z,1011.06
2017-11-03T07:29:13.523Z,1011.05
2017-11-03T07:30:13.502Z,1011.06
2017-11-03T07:31:13.481Z,1011.03
2017-11-03T07:32:13.451Z,1011.01
2017-11-03T07:33:13.427Z,1011.05
2017-11-03T07:34:13.403Z,1011.05
2017-11-03T07:35:13.380Z,1011.04
2017-11-03T07:36:13.354Z,1011.05
2017-11-03T07:37:13.331Z,1011.13
2017-11-03T07:38:13.305Z,1011.09
2017-11-03T07:39:13.285Z,1011.14
2017-11-03T07:40:13.257Z,1011.1
2017-11-03T07:41:13.235Z,1011.11
2017-11-03T07:42:13.211Z,1011.05
2017-11-03T07:43:13.186Z,1011.04
2017-11-03T07:44:13.172Z,1011.03
2017-11-03T07:45:13.140Z,1011.02
2017-11-03T07:46:13.115Z,1011.05
2017-11-03T07:47:13.093Z,1011.09
2017-11-03T07:48:13.068Z,1011.21
2017-11-03T07:49:13.044Z,1011.17
2017-11-03T07:50:13.020Z,1011.16
2017-11-03T07:51:12.999Z,1011.13
2017-11-03T07:52:12.971Z,1011.09
2017-11-03T07:53:12.950Z,1011.08
2017-11-03T07:54:12.925Z,1010.99
2017-11-03T07:55:12.909Z,1011.03
2017-11-03T07:56:12.876Z,1011.08
2017-11-03T07:57:12.856Z,1011.09
2017-11-03T07:58:12.837Z,1011.08
2017-11-03T07:59:12.806Z,1011.12
2017-11-03T08:00:12.778Z,1011.15
2017-11-03T08:01:12.758Z,1011.17
2017-11-03T08:02:12.735Z,1011.15
2017-11-03T08:03:12.720Z,1011.13
2017-11-03T08:04:12.687Z,1011.11
2017-11-03T08:05:12.661Z,1011.06
2017-11-03T08:06:12.637Z,1011.03
2017-11-03T08:07:12.618Z,1011.06
2017-11-03T08:08:12.590Z,1011.1
2017-11-03T08:09:12.566Z,1011.05
2017-11-03T08:10:12.541Z,1011.09
2017-11-03T08:11:12.519Z,1011.13
2017-11-03T08:12:12.501Z,1011.25
2017-11-03T08:13:12.472Z,1011.16
2017-11-03T08:14:12.447Z,1011.11
2017-11-03T08:15:12.426Z,1011.1
2017-11-03T08:16:12.404Z,1011.09
2017-11-03T08:17:12.377Z,1011.1
2017-11-03T08:18:12.356Z,1011.05
2017-11-03T08:19:12.331Z,1011.05
2017-11-03T08:20:12.305Z,1011.06
2017-11-03T08:21:12.283Z,1011.02
2017-11-03T08:22:12.261Z,1011.05
2017-11-03T08:23:12.238Z,1011.03
2017-11-03T08:24:12.217Z,1011.06
2017-11-03T08:25:12.200Z,1011.1
2017-11-03T08:26:12.165Z,1011.17
2017-11-03T08:27:12.143Z,1011.16
2017-11-03T08:28:12.117Z,1011.12
2017-11-03T08:29:12.098Z,1011.14
2017-11-03T08:30:12.071Z,1011.1
2017-11-03T08:31:12.056Z,1011.12
2017-11-03T08:32:12.023Z,1011.09
2017-11-03T08:33:12.002Z,1011.12
2017-11-03T08:34:11.976Z,1011.11
2017-11-03T08:35:11.957Z,1011.14
2017-11-03T08:36:11.929Z,1011.13
2017-11-03T08:37:11.912Z,1011.09
2017-11-03T08:38:11.884Z,1011.03
2017-11-03T08:39:11.862Z,1011.02
2017-11-03T08:40:11.835Z,1011.06
2017-11-03T08:41:11.819Z,1011.07
2017-11-03T08:42:11.788Z,1011.08
2017-11-03T08:43:11.771Z,1011.09
2017-11-03T08:44:11.753Z,1011.03
2017-11-03T08:45:11.721Z,1011.06
2017-11-03T08:46:11.697Z,1011.04
2017-11-03T08:47:11.671Z,1011.08
2017-11-03T08:48:11.648Z,1011.09
2017-11-03T08:49:11.626Z,1011.09
2017-11-03T08:50:11.601Z,1011.09
2017-11-03T08:51:11.577Z,1011.07
2017-11-03T08:52:11.554Z,1011
2017-11-03T08:53:11.534Z,1010.97
2017-11-03T08:54:11.507Z,1010.96
2017-11-03T08:55:11.487Z,1010.97
2017-11-03T08:56:11.467Z,1010.98
2017-11-03T08:57:11.438Z,1010.97
2017-11-03T08:58:11.416Z,1011
2017-11-03T08:59:11.390Z,1010.99
2017-11-03T09:00:11.371Z,1011.02
2017-11-03T09:01:11.345Z,1010.98
2017-11-03T09:02:11.322Z,1010.98
2017-11-03T09:03:11.299Z,1010.98
2017-11-03T09:04:11.277Z,1011.01
2017-11-03T09:05:11.251Z,1011.03
2017-11-03T09:06:11.228Z,1011.03
2017-11-03T09:07:11.211Z,1011.08
2017-11-03T09:08:11.199Z,1011.06
2017-11-03T09:09:11.162Z,1011.06
2017-11-03T09:10:11.139Z,1011.04
2017-11-03T09:11:11.113Z,1011.07
2017-11-03T09:12:11.092Z,1011.05
2017-11-03T09:13:11.071Z,1011.02
2017-11-03T09:14:11.043Z,1010.98
2017-11-03T09:15:11.021Z,1011.04
2017-11-03T09:16:10.997Z,1011.04
2017-11-03T09:17:10.978Z,1011
2017-11-03T09:18:10.951Z,1011.01
2017-11-03T09:19:10.929Z,1011
2017-11-03T09:20:10.909Z,1011.03
2017-11-03T09:21:10.879Z,1011.03
2017-11-03T09:22:10.861Z,1011.01
2017-11-03T09:23:10.835Z,1010.99
2017-11-03T09:24:10.813Z,1010.98
2017-11-03T09:25:10.790Z,1010.99
2017-11-03T09:26:10.768Z,1011
2017-11-03T09:27:10.751Z,1011.01
2017-11-03T09:28:10.720Z,1011.01
2017-11-03T09:29:10.700Z,1010.98
2017-11-03T09:30:10.673Z,1010.98
2017-11-03T09:31:10.652Z,1011.03
2017-11-03T09:32:10.632Z,1010.99
2017-11-03T09:33:10.610Z,1011.02
2017-11-03T09:34:10.593Z,1010.98
2017-11-03T09:35:10.562Z,1010.97
2017-11-03T09:36:10.543Z,1011.01
2017-11-03T09:37:10.575Z,1011.01
2017-11-03T09:38:10.493Z,1011
2017-11-03T09:39:10.470Z,1010.99
2017-11-03T09:40:10.448Z,1011
2017-11-03T09:41:10.427Z,1011
2017-11-03T09:42:10.402Z,1011.06
2017-11-03T09:43:10.376Z,1011.02
2017-11-03T09:44:10.356Z,1010.99
2017-11-03T09:45:10.334Z,1011.04
2017-11-03T09:46:10.311Z,1011.02
2017-11-03T09:47:10.291Z,1011.01
2017-11-03T09:48:10.276Z,1011.02
2017-11-03T09:49:10.249Z,1011.02
2017-11-03T09:50:10.221Z,1010.96
2017-11-03T09:51:10.203Z,1010.97
2017-11-03T09:52:10.176Z,1010.94
2017-11-03T09:53:10.155Z,1010.96
2017-11-03T09:54:10.132Z,1010.96
2017-11-03T09:55:10.111Z,1010.92
2017-11-03T09:56:10.087Z,1010.96
2017-11-03T09:57:10.063Z,1010.96
2017-11-03T09:58:10.042Z,1010.9
2017-11-03T09:59:10.024Z,1010.96
2017-11-03T10:00:09.996Z,1010.97
2017-11-03T10:01:09.974Z,1010.91
2017-11-03T10:02:09.953Z,1010.92
2017-11-03T10:03:09.924Z,1010.94
2017-11-03T10:04:09.907Z,1010.91
2017-11-03T10:05:09.885Z,1010.92
2017-11-03T10:06:09.863Z,1010.9
2017-11-03T10:07:09.838Z,1010.91
2017-11-03T10:08:09.814Z,1010.92
2017-11-03T10:09:09.792Z,1010.89
2017-11-03T10:10:09.771Z,1010.96
2017-11-03T10:11:09.748Z,1010.9
2017-11-03T10:12:09.724Z,1010.93
2017-11-03T10:13:09.706Z,1010.94
2017-11-03T10:14:09.679Z,1010.93
2017-11-03T10:15:09.656Z,1010.97
2017-11-03T10:16:09.637Z,1010.97
2017-11-03T10:17:09.612Z,1010.93
2017-11-03T10:18:09.592Z,1010.94
2017-11-03T10:19:09.568Z,1010.96
2017-11-03T10:20:09.547Z,1010.94
2017-11-03T10:21:09.522Z,1010.95
2017-11-03T10:22:09.501Z,1010.87
2017-11-03T10:23:09.477Z,1010.91
2017-11-03T10:24:09.454Z,1010.91
2017-11-03T10:25:09.430Z,1010.89
2017-11-03T10:26:09.424Z,1010.91
2017-11-03T10:27:09.388Z,1010.88
2017-11-03T10:28:09.367Z,1010.89
2017-11-03T10:29:09.342Z,1010.91
2017-11-03T10:30:09.319Z,1010.89
2017-11-03T10:31:09.296Z,1010.89
2017-11-03T10:32:09.317Z,1010.83
2017-11-03T10:33:09.250Z,1010.89
2017-11-03T10:34:09.232Z,1010.87
2017-11-03T10:35:09.206Z,1010.85
2017-11-03T10:36:09.182Z,1010.82
2017-11-03T10:37:09.163Z,1010.84
2017-11-03T10:38:09.137Z,1010.81
2017-11-03T10:39:09.117Z,1010.85
2017-11-03T10:40:09.095Z,1010.85
2017-11-03T10:41:09.071Z,1010.87
2017-11-03T10:42:09.049Z,1010.84
2017-11-03T10:43:09.026Z,1010.79
2017-11-03T10:44:09.001Z,1010.78
2017-11-03T10:45:08.980Z,1010.8
2017-11-03T10:46:08.958Z,1010.78
2017-11-03T10:47:08.942Z,1010.76
2017-11-03T10:48:08.916Z,1010.76
2017-11-03T10:49:08.893Z,1010.78
2017-11-03T10:50:08.874Z,1010.77
2017-11-03T10:51:08.848Z,1010.78
2017-11-03T10:52:08.824Z,1010.8
2017-11-03T10:53:08.805Z,1010.74
2017-11-03T10:54:08.778Z,1010.79
2017-11-03T10:55:08.762Z,1010.72
2017-11-03T10:56:08.735Z,1010.71
2017-11-03T10:57:08.713Z,1010.72
2017-11-03T10:58:08.690Z,1010.7
2017-11-03T10:59:08.672Z,1010.72
2017-11-03T11:00:08.643Z,1010.71
2017-11-03T11:01:08.624Z,1010.66
2017-11-03T11:02:08.600Z,1010.68
2017-11-03T11:03:08.577Z,1010.68
2017-11-03T11:04:08.555Z,1010.65
2017-11-03T11:05:08.532Z,1010.64
2017-11-03T11:06:08.514Z,1010.67
2017-11-03T11:07:08.491Z,1010.61
2017-11-03T11:08:08.466Z,1010.61
2017-11-03T11:09:08.442Z,1010.64
2017-11-03T11:10:08.424Z,1010.66
2017-11-03T11:11:08.397Z,1010.64
2017-11-03T11:12:08.374Z,1010.68
2017-11-03T11:13:08.352Z,1010.64
2017-11-03T11:14:08.329Z,1010.62
2017-11-03T11:15:08.311Z,1010.6
2017-11-03T11:16:08.287Z,1010.58
2017-11-03T11:17:08.264Z,1010.55
2017-11-03T11:18:08.245Z,1010.58
2017-11-03T11:19:08.221Z,1010.56
2017-11-03T11:20:08.198Z,1010.56
2017-11-03T11:21:08.177Z,1010.55
2017-11-03T11:22:08.162Z,1010.54
2017-11-03T11:23:08.131Z,1010.56
2017-11-03T11:24:08.117Z,1010.56
2017-11-03T11:25:08.086Z,1010.52
2017-11-03T11:26:08.065Z,1010.53
2017-11-03T11:27:08.039Z,1010.52
2017-11-03T11:28:08.020Z,1010.46
2017-11-03T11:29:07.997Z,1010.5
2017-11-03T11:30:07.977Z,1010.54
2017-11-03T11:31:07.950Z,1010.51
2017-11-03T11:32:07.931Z,1010.49
2017-11-03T11:33:07.908Z,1010.53
2017-11-03T11:34:07.887Z,1010.51
2017-11-03T11:35:07.862Z,1010.53
2017-11-03T11:36:07.841Z,1010.57
2017-11-03T11:37:07.818Z,1010.54
2017-11-03T11:38:07.796Z,1010.52
2017-11-03T11:39:07.774Z,1010.5
2017-11-03T11:40:07.751Z,1010.51
2017-11-03T11:41:07.731Z,1010.48
2017-11-03T11:42:07.720Z,1010.47
2017-11-03T11:43:07.685Z,1010.47
2017-11-03T11:44:07.667Z,1010.44
2017-11-03T11:45:07.639Z,1010.43
2017-11-03T11:46:07.616Z,1010.45
2017-11-03T11:47:07.598Z,1010.41
2017-11-03T11:48:07.574Z,1010.35
2017-11-03T11:49:07.556Z,1010.3
2017-11-03T11:50:07.528Z,1010.26
2017-11-03T11:51:07.510Z,1010.26
2017-11-03T11:52:07.483Z,1010.24
2017-11-03T11:53:07.468Z,1010.23
2017-11-03T11:54:07.440Z,1010.26
2017-11-03T11:55:07.417Z,1010.23
2017-11-03T11:56:07.394Z,1010.21
2017-11-03T11:57:07.374Z,1010.22
2017-11-03T11:58:07.357Z,1010.17
2017-11-03T11:59:07.330Z,1010.19
2017-11-03T12:00:07.314Z,1010.1
2017-11-03T12:01:07.284Z,1010.08
2017-11-03T12:02:07.263Z,1010.07
2017-11-03T12:03:07.241Z,1010.11
2017-11-03T12:04:07.218Z,1010.09
2017-11-03T12:05:07.201Z,1010.1
2017-11-03T12:06:07.174Z,1010.06
2017-11-03T12:07:07.153Z,1010.03
2017-11-03T12:08:07.132Z,1010.04
2017-11-03T12:09:07.105Z,1010.06
2017-11-03T12:10:07.092Z,1010.01
2017-11-03T12:11:07.063Z,1010.05
2017-11-03T12:12:07.044Z,1010.04
2017-11-03T12:13:07.376Z,1010.06
2017-11-03T12:14:07.000Z,1010.07
2017-11-03T12:15:06.974Z,1010.07
2017-11-03T12:16:06.953Z,1010.12
2017-11-03T12:17:06.931Z,1010.12
2017-11-03T12:18:06.911Z,1010.17
2017-11-03T12:19:06.885Z,1010.19
2017-11-03T12:20:06.862Z,1010.14
2017-11-03T12:21:06.856Z,1010.15
2017-11-03T12:22:06.822Z,1010.15
2017-11-03T12:23:06.799Z,1010.17
2017-11-03T12:24:06.780Z,1010.16
2017-11-03T12:25:06.761Z,1010.19
2017-11-03T12:26:06.727Z,1010.23
2017-11-03T12:27:06.707Z,1010.2